Time;durP1;ratioP1;P1;durP2;ratioP2;P2;SDS_P1;SDS_P2;PMS_P1;PMS_P2;Temp;Humidity;BMP_temperature;BMP_pressure;BME280_temperature;BME280_humidity;BME280_pressure;Samples;Min_cycle;Max_cycle;Signal;HPM_P1;HPM_P2
2022/05/08 00:02:17;;;;;;;;;;;16.50;78.90;;;;;;4983677;28;96275;-47
2022/05/08 00:04:51;;;;;;;;;;;16.50;78.90;;;;;;4991057;28;95706;-47
2022/05/08 00:07:22;;;;;;;;;;;16.50;78.90;;;;;;4991011;28;95479;-45
2022/05/08 00:09:53;;;;;;;;;;;16.50;78.90;;;;;;4991331;28;96552;-45
2022/05/08 00:12:23;;;;;;;;;;;16.50;78.80;;;;;;4989421;28;95781;-45
2022/05/08 00:14:54;;;;;;;;;;;16.50;78.70;;;;;;4985819;28;95761;-46
2022/05/08 00:17:24;;;;;;;;;;;16.50;78.70;;;;;;4976799;28;96034;-46
2022/05/08 00:19:55;;;;;;;;;;;16.50;78.70;;;;;;4981931;28;96465;-49
2022/05/08 00:22:26;;;;;;;;;;;16.50;78.70;;;;;;4980794;28;95753;-47
2022/05/08 00:25:04;;;;;;;;;;;16.50;78.70;;;;;;4977042;28;95788;-46
2022/05/08 00:27:34;;;;;;;;;;;16.50;78.60;;;;;;4979340;28;95273;-46
2022/05/08 00:30:05;;;;;;;;;;;16.50;78.60;;;;;;4981240;28;96513;-47
2022/05/08 00:32:36;;;;;;;;;;;16.60;78.50;;;;;;4973575;28;95924;-45
2022/05/08 00:35:09;;;;;;;;;;;16.50;78.40;;;;;;4978334;28;99179;-47
2022/05/08 00:37:41;;;;;;;;;;;16.50;78.30;;;;;;4978256;28;96296;-46
2022/05/08 00:40:12;;;;;;;;;;;16.50;78.30;;;;;;4981408;28;95969;-46
2022/05/08 00:42:45;;;;;;;;;;;16.50;78.20;;;;;;4981372;28;97739;-46
2022/05/08 00:45:16;;;;;;;;;;;16.60;78.20;;;;;;4980714;28;95717;-46
2022/05/08 00:47:46;;;;;;;;;;;16.60;78.20;;;;;;4988427;28;95811;-45
2022/05/08 00:50:16;;;;;;;;;;;16.60;78.20;;;;;;4983669;28;95844;-46
2022/05/08 00:52:48;;;;;;;;;;;16.60;78.00;;;;;;4980550;28;96329;-45
2022/05/08 00:55:18;;;;;;;;;;;16.60;78.00;;;;;;4979692;28;95317;-45
2022/05/08 00:57:49;;;;;;;;;;;16.60;78.00;;;;;;4979169;28;95605;-46
2022/05/08 01:00:21;;;;;;;;;;;16.50;77.90;;;;;;4973952;28;96218;-46
2022/05/08 01:02:52;;;;;;;;;;;16.60;77.90;;;;;;4982933;28;95696;-44
2022/05/08 01:05:25;;;;;;;;;;;16.60;77.90;;;;;;4985124;28;97318;-44
2022/05/08 01:07:57;;;;;;;;;;;16.60;77.90;;;;;;4978312;28;97550;-45
2022/05/08 01:10:27;;;;;;;;;;;16.60;77.90;;;;;;4978617;28;95820;-46
2022/05/08 01:12:57;;;;;;;;;;;16.60;77.80;;;;;;4982698;28;95527;-44
2022/05/08 01:15:29;;;;;;;;;;;16.60;77.80;;;;;;4980642;28;95616;-47
2022/05/08 01:17:59;;;;;;;;;;;16.60;77.80;;;;;;4982704;28;95710;-44
2022/05/08 01:20:29;;;;;;;;;;;16.60;77.80;;;;;;4982804;28;98836;-47
2022/05/08 01:22:59;;;;;;;;;;;16.60;77.80;;;;;;4985359;28;96006;-45
2022/05/08 01:25:30;;;;;;;;;;;16.60;77.80;;;;;;4989986;28;95779;-47
2022/05/08 01:28:04;;;;;;;;;;;16.60;77.80;;;;;;4994127;28;95832;-45
2022/05/08 01:30:35;;;;;;;;;;;16.60;77.70;;;;;;4971677;28;95851;-43
2022/05/08 01:33:07;;;;;;;;;;;16.60;78.00;;;;;;4988336;28;95880;-43
2022/05/08 01:35:39;;;;;;;;;;;16.70;78.00;;;;;;4984744;28;95768;-44
2022/05/08 01:38:10;;;;;;;;;;;16.70;77.90;;;;;;4989624;28;95725;-44
2022/05/08 01:40:40;;;;;;;;;;;16.80;77.90;;;;;;4989673;28;96027;-44
2022/05/08 01:43:11;;;;;;;;;;;16.80;77.80;;;;;;4992632;28;95435;-44
2022/05/08 01:45:41;;;;;;;;;;;16.90;77.70;;;;;;4979883;28;95551;-43
2022/05/08 01:48:23;;;;;;;;;;;16.90;77.70;;;;;;4992865;28;95790;-43
2022/05/08 01:50:55;;;;;;;;;;;16.90;77.70;;;;;;4982815;28;95976;-45
2022/05/08 01:53:26;;;;;;;;;;;17.00;77.80;;;;;;4987300;28;96045;-44
2022/05/08 01:55:56;;;;;;;;;;;17.00;77.80;;;;;;4982892;28;96025;-43
2022/05/08 01:58:27;;;;;;;;;;;17.10;78.00;;;;;;4990215;28;95818;-45
2022/05/08 02:01:01;;;;;;;;;;;17.10;78.00;;;;;;4977957;28;96188;-44
2022/05/08 02:03:34;;;;;;;;;;;17.20;78.00;;;;;;4984055;28;95782;-44
2022/05/08 02:06:06;;;;;;;;;;;17.20;78.20;;;;;;4993100;28;95946;-45
2022/05/08 02:08:36;;;;;;;;;;;17.20;78.10;;;;;;4991412;28;95954;-46
2022/05/08 02:11:06;;;;;;;;;;;17.20;78.10;;;;;;4984632;28;96220;-45
2022/05/08 02:13:36;;;;;;;;;;;17.20;78.10;;;;;;4982065;28;95328;-46
2022/05/08 02:16:05;;;;;;;;;;;17.20;78.10;;;;;;4977334;28;95705;-44
2022/05/08 02:18:36;;;;;;;;;;;17.20;78.00;;;;;;4985959;28;95912;-45
2022/05/08 02:21:06;;;;;;;;;;;17.20;77.80;;;;;;4986418;28;96020;-45
2022/05/08 02:23:36;;;;;;;;;;;17.20;77.90;;;;;;4980180;28;95232;-46
2022/05/08 02:26:10;;;;;;;;;;;17.20;78.10;;;;;;4984625;28;95939;-46
2022/05/08 02:28:40;;;;;;;;;;;17.20;78.20;;;;;;4987454;28;95406;-45
2022/05/08 02:31:11;;;;;;;;;;;17.20;78.30;;;;;;4983958;28;96561;-45
2022/05/08 02:33:42;;;;;;;;;;;17.20;78.30;;;;;;4983194;28;97770;-46
2022/05/08 02:36:13;;;;;;;;;;;17.30;78.30;;;;;;4984100;28;98418;-45
2022/05/08 02:38:43;;;;;;;;;;;17.30;78.30;;;;;;4991013;28;95738;-44
2022/05/08 02:41:13;;;;;;;;;;;17.30;78.30;;;;;;4992339;28;95877;-45
2022/05/08 02:43:43;;;;;;;;;;;17.30;78.30;;;;;;4989760;28;95768;-45
2022/05/08 02:46:13;;;;;;;;;;;17.30;78.30;;;;;;4976691;28;95392;-46
2022/05/08 02:48:43;;;;;;;;;;;17.30;78.30;;;;;;4986573;28;95898;-45
2022/05/08 02:51:12;;;;;;;;;;;17.30;78.30;;;;;;4979435;28;96737;-48
2022/05/08 02:53:42;;;;;;;;;;;17.30;78.30;;;;;;4982775;28;95954;-46
2022/05/08 02:59:01;;;;;;;;;;;17.30;78.20;;;;;;4981967;28;98397;-47
2022/05/08 03:01:32;;;;;;;;;;;17.30;78.20;;;;;;4979638;28;95800;-47
2022/05/08 03:04:09;;;;;;;;;;;17.30;78.20;;;;;;4976258;28;96322;-47
2022/05/08 03:06:39;;;;;;;;;;;17.30;78.20;;;;;;4978129;28;95695;-46
2022/05/08 03:09:09;;;;;;;;;;;17.30;78.10;;;;;;4981173;28;95523;-45
2022/05/08 03:11:39;;;;;;;;;;;17.30;78.10;;;;;;4970732;28;96862;-47
2022/05/08 03:14:09;;;;;;;;;;;17.30;78.10;;;;;;4979880;28;95741;-46
2022/05/08 03:16:41;;;;;;;;;;;17.30;78.00;;;;;;4978086;28;95878;-46
2022/05/08 03:19:13;;;;;;;;;;;17.30;78.00;;;;;;4988715;28;96016;-45
2022/05/08 03:21:42;;;;;;;;;;;17.30;78.10;;;;;;4985416;28;96335;-45
2022/05/08 03:24:13;;;;;;;;;;;17.30;78.10;;;;;;4990222;28;95748;-45
2022/05/08 03:26:43;;;;;;;;;;;17.20;78.10;;;;;;4973684;28;95694;-45
2022/05/08 03:29:13;;;;;;;;;;;17.20;78.10;;;;;;4987170;28;97334;-45
2022/05/08 03:31:44;;;;;;;;;;;17.20;78.10;;;;;;4980507;28;97952;-45
2022/05/08 03:34:15;;;;;;;;;;;17.20;78.00;;;;;;4978508;28;97858;-45
2022/05/08 03:36:46;;;;;;;;;;;17.20;78.00;;;;;;4984699;28;95481;-45
2022/05/08 03:39:16;;;;;;;;;;;17.20;78.10;;;;;;4986406;28;95940;-45
2022/05/08 03:41:46;;;;;;;;;;;17.20;78.00;;;;;;4983095;28;95799;-45
2022/05/08 03:44:16;;;;;;;;;;;17.20;78.00;;;;;;4983722;28;95676;-46
2022/05/08 03:46:47;;;;;;;;;;;17.10;78.00;;;;;;4979418;28;95912;-45
2022/05/08 03:49:17;;;;;;;;;;;17.20;78.10;;;;;;4992214;28;95742;-44
2022/05/08 03:51:46;;;;;;;;;;;17.20;78.10;;;;;;4989428;28;96740;-45
2022/05/08 03:54:16;;;;;;;;;;;17.10;78.00;;;;;;4991033;28;95628;-44
2022/05/08 03:56:47;;;;;;;;;;;17.10;78.10;;;;;;4991753;28;95713;-44
2022/05/08 03:59:18;;;;;;;;;;;17.10;78.30;;;;;;4971947;28;95704;-47
2022/05/08 04:01:55;;;;;;;;;;;17.10;78.30;;;;;;4983633;28;96070;-45
2022/05/08 04:04:28;;;;;;;;;;;17.10;78.40;;;;;;4990827;28;96269;-45
2022/05/08 04:07:02;;;;;;;;;;;17.10;79.00;;;;;;4990066;28;95835;-46
2022/05/08 04:09:32;;;;;;;;;;;17.10;78.50;;;;;;4990233;28;96018;-45
2022/05/08 04:12:02;;;;;;;;;;;17.10;78.50;;;;;;4983897;28;95987;-44
2022/05/08 04:14:31;;;;;;;;;;;17.10;78.50;;;;;;4985137;28;96123;-44
2022/05/08 04:17:02;;;;;;;;;;;17.10;78.50;;;;;;4980397;28;95588;-44
2022/05/08 04:19:33;;;;;;;;;;;17.10;78.70;;;;;;4985338;28;95795;-45
2022/05/08 04:24:52;;;;;;;;;;;17.10;78.80;;;;;;4986716;28;95877;-45
2022/05/08 04:27:23;;;;;;;;;;;17.10;78.80;;;;;;4986494;28;95735;-44
2022/05/08 04:29:55;;;;;;;;;;;17.10;78.90;;;;;;4986776;28;95922;-43
2022/05/08 04:32:26;;;;;;;;;;;17.10;79.20;;;;;;4980189;28;95869;-44
2022/05/08 04:34:56;;;;;;;;;;;17.10;79.00;;;;;;4980959;28;95802;-45
2022/05/08 04:37:28;;;;;;;;;;;17.10;79.00;;;;;;4989187;28;95745;-48
2022/05/08 04:39:58;;;;;;;;;;;17.10;79.00;;;;;;4984665;28;95758;-45
2022/05/08 04:42:30;;;;;;;;;;;17.10;79.10;;;;;;4985150;28;96516;-45
2022/05/08 04:45:01;;;;;;;;;;;17.10;79.10;;;;;;4968287;28;95419;-44
2022/05/08 04:47:30;;;;;;;;;;;17.10;79.00;;;;;;4985035;28;95779;-43
2022/05/08 04:50:00;;;;;;;;;;;17.10;79.10;;;;;;4986601;28;95239;-44
2022/05/08 04:52:30;;;;;;;;;;;17.10;79.10;;;;;;4990729;28;96728;-48
2022/05/08 04:55:03;;;;;;;;;;;17.10;79.10;;;;;;4992977;28;95669;-48
2022/05/08 04:57:34;;;;;;;;;;;17.10;79.10;;;;;;4992894;28;95755;-48
2022/05/08 05:00:05;;;;;;;;;;;17.20;78.80;;;;;;4993052;28;96006;-46
2022/05/08 05:02:35;;;;;;;;;;;17.30;78.40;;;;;;4991402;28;98452;-46
2022/05/08 05:05:06;;;;;;;;;;;17.40;78.20;;;;;;4993511;28;95503;-46
2022/05/08 05:07:41;;;;;;;;;;;17.40;78.10;;;;;;4991752;28;95598;-45
2022/05/08 05:10:13;;;;;;;;;;;17.40;78.10;;;;;;4991999;28;95806;-46
2022/05/08 05:12:42;;;;;;;;;;;17.40;78.10;;;;;;4992245;28;96103;-46
2022/05/08 05:15:12;;;;;;;;;;;17.40;78.00;;;;;;4984605;28;96662;-47
2022/05/08 05:17:43;;;;;;;;;;;17.40;78.10;;;;;;4993397;28;95629;-47
2022/05/08 05:20:13;;;;;;;;;;;17.40;78.20;;;;;;4993433;28;95644;-47
2022/05/08 05:22:42;;;;;;;;;;;17.40;78.30;;;;;;4992019;28;98642;-45
2022/05/08 05:25:13;;;;;;;;;;;17.40;78.40;;;;;;4993255;28;95686;-45
2022/05/08 05:27:45;;;;;;;;;;;17.40;79.10;;;;;;4993755;28;95422;-45
2022/05/08 05:30:16;;;;;;;;;;;17.40;78.40;;;;;;4987770;28;95876;-46
2022/05/08 05:32:46;;;;;;;;;;;17.40;78.50;;;;;;4990035;28;102608;-45
2022/05/08 05:35:17;;;;;;;;;;;17.40;78.50;;;;;;4982726;28;95976;-45
2022/05/08 05:37:48;;;;;;;;;;;17.40;78.50;;;;;;4993329;28;95660;-45
2022/05/08 05:40:20;;;;;;;;;;;17.40;78.50;;;;;;4992729;28;96552;-46
2022/05/08 05:42:51;;;;;;;;;;;17.40;78.50;;;;;;4995049;28;95892;-45
2022/05/08 05:45:22;;;;;;;;;;;17.40;78.50;;;;;;4991555;28;97521;-45
2022/05/08 05:47:59;;;;;;;;;;;17.40;78.50;;;;;;4992784;28;95434;-46
2022/05/08 05:50:29;;;;;;;;;;;17.40;78.60;;;;;;4993149;28;95729;-45
2022/05/08 05:52:58;;;;;;;;;;;17.40;78.60;;;;;;4992919;28;95984;-45
2022/05/08 05:55:28;;;;;;;;;;;17.40;78.60;;;;;;4994094;28;95561;-45
2022/05/08 05:57:58;;;;;;;;;;;17.40;78.60;;;;;;4993574;28;95633;-45
2022/05/08 06:00:29;;;;;;;;;;;17.40;78.60;;;;;;4988079;28;95571;-46
2022/05/08 06:03:00;;;;;;;;;;;17.30;78.60;;;;;;4993696;28;95982;-45
2022/05/08 06:05:30;;;;;;;;;;;17.30;78.60;;;;;;4991732;28;96013;-47
2022/05/08 06:08:00;;;;;;;;;;;17.30;78.70;;;;;;4992069;28;95992;-45
2022/05/08 06:10:31;;;;;;;;;;;17.30;78.70;;;;;;4993034;28;95864;-45
2022/05/08 06:13:02;;;;;;;;;;;17.30;78.60;;;;;;4992597;28;95880;-46
2022/05/08 06:15:33;;;;;;;;;;;17.30;78.50;;;;;;4986892;28;95401;-47
2022/05/08 06:18:03;;;;;;;;;;;17.30;78.70;;;;;;4993386;28;95545;-46
2022/05/08 06:20:32;;;;;;;;;;;17.30;78.70;;;;;;4994052;28;95798;-45
2022/05/08 06:23:02;;;;;;;;;;;17.30;78.80;;;;;;4991937;28;96012;-45
2022/05/08 06:25:32;;;;;;;;;;;17.30;78.80;;;;;;4990474;28;95483;-45
2022/05/08 06:28:03;;;;;;;;;;;17.30;78.80;;;;;;4992574;28;96044;-47
2022/05/08 06:30:34;;;;;;;;;;;17.30;78.90;;;;;;4986491;28;95539;-45
2022/05/08 06:33:05;;;;;;;;;;;17.20;78.80;;;;;;4988039;28;96203;-46
2022/05/08 06:35:39;;;;;;;;;;;17.20;78.90;;;;;;4987840;28;95881;-47
2022/05/08 06:38:14;;;;;;;;;;;17.20;78.80;;;;;;4993303;28;95756;-46
2022/05/08 06:40:45;;;;;;;;;;;17.20;78.90;;;;;;4991691;28;95761;-46
2022/05/08 06:43:15;;;;;;;;;;;17.20;79.00;;;;;;4991027;28;96605;-46
2022/05/08 06:45:46;;;;;;;;;;;17.20;79.10;;;;;;4981225;28;96102;-45
2022/05/08 06:48:18;;;;;;;;;;;17.20;79.20;;;;;;4992978;28;95881;-45
2022/05/08 06:50:47;;;;;;;;;;;17.20;79.30;;;;;;4993603;28;95278;-45
2022/05/08 06:53:17;;;;;;;;;;;17.20;79.20;;;;;;4992904;28;96589;-47
2022/05/08 06:55:46;;;;;;;;;;;17.10;79.20;;;;;;4990547;28;95826;-46
2022/05/08 06:58:16;;;;;;;;;;;17.10;79.40;;;;;;4991312;28;95201;-47
2022/05/08 07:03:36;;;;;;;;;;;17.10;79.40;;;;;;4989219;28;96183;-46
2022/05/08 07:06:07;;;;;;;;;;;17.10;79.40;;;;;;4992642;28;96052;-45
2022/05/08 07:08:38;;;;;;;;;;;17.10;79.50;;;;;;4992372;28;95925;-45
2022/05/08 07:11:09;;;;;;;;;;;17.10;79.50;;;;;;4992239;28;95578;-45
2022/05/08 07:13:38;;;;;;;;;;;17.10;79.50;;;;;;4990879;28;95952;-46
2022/05/08 07:16:07;;;;;;;;;;;17.10;79.60;;;;;;4983877;28;95427;-45
2022/05/08 07:18:38;;;;;;;;;;;17.10;79.50;;;;;;4991120;28;96719;-44
2022/05/08 07:21:08;;;;;;;;;;;17.00;79.50;;;;;;4992451;28;95854;-45
2022/05/08 07:23:38;;;;;;;;;;;17.00;79.60;;;;;;4986379;28;95821;-44
2022/05/08 07:26:09;;;;;;;;;;;17.00;79.70;;;;;;4991063;28;95701;-45
2022/05/08 07:28:40;;;;;;;;;;;17.00;79.70;;;;;;4989615;28;95845;-44
2022/05/08 07:31:10;;;;;;;;;;;17.00;79.70;;;;;;4985532;28;95462;-44
2022/05/08 07:33:41;;;;;;;;;;;17.00;79.70;;;;;;4987197;28;95882;-44
2022/05/08 07:36:14;;;;;;;;;;;17.00;79.70;;;;;;4983061;28;96594;-45
2022/05/08 07:38:47;;;;;;;;;;;16.90;79.70;;;;;;4992230;28;95756;-44
2022/05/08 07:41:17;;;;;;;;;;;16.90;79.80;;;;;;4991882;28;95746;-45
2022/05/08 07:43:47;;;;;;;;;;;16.90;79.90;;;;;;4996260;28;95826;-45
2022/05/08 07:46:17;;;;;;;;;;;16.90;79.80;;;;;;4985025;28;96069;-44
2022/05/08 07:48:48;;;;;;;;;;;16.90;79.80;;;;;;4990812;28;95747;-45
2022/05/08 07:51:19;;;;;;;;;;;16.90;79.80;;;;;;4991666;28;95302;-48
2022/05/08 07:53:49;;;;;;;;;;;16.90;79.80;;;;;;4991667;28;96078;-45
2022/05/08 07:56:19;;;;;;;;;;;16.90;79.90;;;;;;4991759;28;95778;-48
2022/05/08 07:58:49;;;;;;;;;;;16.90;79.90;;;;;;4992064;28;95812;-46
2022/05/08 08:01:19;;;;;;;;;;;16.80;79.80;;;;;;4990229;28;98794;-48
2022/05/08 08:04:10;;;;;;;;;;;16.80;79.80;;;;;;4992209;28;96576;-47
2022/05/08 08:06:41;;;;;;;;;;;16.80;79.70;;;;;;4988508;28;95820;-46
2022/05/08 08:09:11;;;;;;;;;;;16.80;79.80;;;;;;4990190;28;95301;-45
2022/05/08 08:11:42;;;;;;;;;;;16.80;79.80;;;;;;4991473;28;95950;-46
2022/05/08 08:14:11;;;;;;;;;;;16.80;79.70;;;;;;4990449;28;96592;-48
2022/05/08 08:17:01;;;;;;;;;;;16.90;80.00;;;;;;4979460;28;96115;-49
2022/05/08 08:19:32;;;;;;;;;;;17.00;79.50;;;;;;4991422;28;95688;-46
2022/05/08 08:22:02;;;;;;;;;;;17.10;79.50;;;;;;4989717;28;95258;-48
2022/05/08 08:24:36;;;;;;;;;;;17.10;79.60;;;;;;4987379;28;96187;-46
2022/05/08 08:27:07;;;;;;;;;;;17.10;79.50;;;;;;4988579;28;95982;-46
2022/05/08 08:29:38;;;;;;;;;;;17.20;79.60;;;;;;4980025;28;95706;-46
2022/05/08 08:32:09;;;;;;;;;;;17.30;79.70;;;;;;4974387;28;96089;-46
2022/05/08 08:34:40;;;;;;;;;;;17.30;79.70;;;;;;4982505;28;96946;-47
2022/05/08 08:37:11;;;;;;;;;;;17.40;80.10;;;;;;4985024;28;96251;-48
2022/05/08 08:39:42;;;;;;;;;;;17.40;80.50;;;;;;4984648;28;95655;-47
2022/05/08 08:42:28;;;;;;;;;;;17.40;80.60;;;;;;4984792;28;96106;-46
2022/05/08 08:47:49;;;;;;;;;;;17.50;80.90;;;;;;4990663;28;101878;-47
2022/05/08 08:50:23;;;;;;;;;;;17.50;81.00;;;;;;4991735;28;95341;-47
2022/05/08 08:52:57;;;;;;;;;;;17.50;81.20;;;;;;4991975;28;95740;-48
2022/05/08 08:55:27;;;;;;;;;;;17.50;81.40;;;;;;4984850;28;96969;-46
2022/05/08 08:57:57;;;;;;;;;;;17.50;81.50;;;;;;4988116;28;95711;-47
2022/05/08 09:00:28;;;;;;;;;;;17.60;81.70;;;;;;4982046;28;95650;-46
2022/05/08 09:02:58;;;;;;;;;;;17.50;81.70;;;;;;4988421;28;98511;-47
2022/05/08 09:05:29;;;;;;;;;;;17.50;81.90;;;;;;4971361;28;96974;-48
2022/05/08 09:08:00;;;;;;;;;;;17.50;82.10;;;;;;4990195;28;95663;-47
2022/05/08 09:10:38;;;;;;;;;;;17.50;82.20;;;;;;4990342;28;95665;-47
2022/05/08 09:13:08;;;;;;;;;;;17.50;82.30;;;;;;4990231;28;98237;-47
2022/05/08 09:15:39;;;;;;;;;;;17.50;82.40;;;;;;4984295;28;96792;-46
2022/05/08 09:18:11;;;;;;;;;;;17.50;82.30;;;;;;4988967;28;95854;-46
2022/05/08 09:20:43;;;;;;;;;;;17.50;82.20;;;;;;4986575;28;95872;-49
2022/05/08 09:23:23;;;;;;;;;;;17.50;82.20;;;;;;4967788;28;95859;-47
2022/05/08 09:25:54;;;;;;;;;;;17.50;82.20;;;;;;4989270;28;97200;-46
2022/05/08 09:28:44;;;;;;;;;;;17.50;82.20;;;;;;4989380;28;95940;-47
2022/05/08 09:31:15;;;;;;;;;;;17.50;82.00;;;;;;4983960;28;95803;-46
2022/05/08 09:33:47;;;;;;;;;;;17.50;82.00;;;;;;4986452;28;96154;-46
2022/05/08 09:36:27;;;;;;;;;;;17.50;81.90;;;;;;4980146;28;96408;-46
2022/05/08 09:38:58;;;;;;;;;;;17.50;81.90;;;;;;4980361;28;96192;-46
2022/05/08 09:41:37;;;;;;;;;;;17.60;81.60;;;;;;4976619;28;95578;-47
2022/05/08 09:44:16;;;;;;;;;;;17.60;81.60;;;;;;4980787;28;95862;-46
2022/05/08 09:46:49;;;;;;;;;;;17.60;81.60;;;;;;4975598;28;98423;-47
2022/05/08 09:49:19;;;;;;;;;;;17.70;81.60;;;;;;4982504;28;95964;-44
2022/05/08 09:51:50;;;;;;;;;;;17.70;81.50;;;;;;4986702;28;95972;-45
2022/05/08 09:54:21;;;;;;;;;;;17.80;81.50;;;;;;4989165;28;95852;-45
2022/05/08 09:56:51;;;;;;;;;;;17.90;81.40;;;;;;4988798;28;96019;-47
2022/05/08 09:59:22;;;;;;;;;;;17.90;81.40;;;;;;4985435;28;95714;-45
2022/05/08 10:01:53;;;;;;;;;;;17.90;81.40;;;;;;4976209;28;95431;-46
2022/05/08 10:04:24;;;;;;;;;;;18.00;81.60;;;;;;4985807;28;95652;-49
2022/05/08 10:06:56;;;;;;;;;;;18.00;81.50;;;;;;4981956;28;96103;-46
2022/05/08 10:15:20;;;;;;;;;;;18.00;81.40;;;;;;4983873;28;95880;-47
2022/05/08 10:17:51;;;;;;;;;;;18.00;81.40;;;;;;4984078;28;103080;-46
2022/05/08 10:20:47;;;;;;;;;;;18.10;81.30;;;;;;4981237;28;95443;-46
2022/05/08 10:23:36;;;;;;;;;;;18.00;81.20;;;;;;4968123;28;95429;-45
2022/05/08 10:26:24;;;;;;;;;;;18.00;81.10;;;;;;4963621;28;95916;-47
2022/05/08 10:29:00;;;;;;;;;;;18.00;81.70;;;;;;4985214;28;97885;-45
2022/05/08 10:31:49;;;;;;;;;;;18.00;80.90;;;;;;4972433;28;95575;-45
2022/05/08 10:34:35;;;;;;;;;;;17.90;80.90;;;;;;4978348;28;95910;-46
2022/05/08 10:37:13;;;;;;;;;;;17.90;80.90;;;;;;4979631;28;95622;-46
2022/05/08 10:39:51;;;;;;;;;;;17.90;80.80;;;;;;4982344;28;96443;-46
2022/05/08 10:42:39;;;;;;;;;;;17.90;80.70;;;;;;4985489;28;95654;-47
2022/05/08 10:45:33;;;;;;;;;;;17.80;80.50;;;;;;4990170;28;95557;-45
2022/05/08 10:48:08;;;;;;;;;;;17.80;80.60;;;;;;4977243;28;95786;-47
2022/05/08 10:50:39;;;;;;;;;;;17.80;80.50;;;;;;4989334;28;95947;-47
2022/05/08 10:53:28;;;;;;;;;;;17.70;80.50;;;;;;4986038;28;96198;-46
2022/05/08 10:55:59;;;;;;;;;;;17.80;80.50;;;;;;4984379;28;95567;-47
2022/05/08 10:58:29;;;;;;;;;;;17.70;80.50;;;;;;4971278;28;98117;-46
2022/05/08 11:01:03;;;;;;;;;;;17.70;80.50;;;;;;4981847;28;95922;-46
2022/05/08 11:03:36;;;;;;;;;;;17.60;80.50;;;;;;4983370;28;95415;-47
2022/05/08 11:06:07;;;;;;;;;;;17.60;80.50;;;;;;4991214;28;95779;-46
2022/05/08 11:08:38;;;;;;;;;;;17.60;80.50;;;;;;4984973;28;95690;-47
2022/05/08 11:11:10;;;;;;;;;;;17.60;80.60;;;;;;4983610;28;96246;-47
2022/05/08 11:13:44;;;;;;;;;;;17.60;80.50;;;;;;4986878;28;95913;-45
2022/05/08 11:16:15;;;;;;;;;;;17.60;80.60;;;;;;4983959;28;100519;-46
2022/05/08 11:18:45;;;;;;;;;;;17.50;80.50;;;;;;4988366;28;95356;-48
2022/05/08 11:21:16;;;;;;;;;;;17.50;80.60;;;;;;4988444;28;95891;-46
2022/05/08 11:23:47;;;;;;;;;;;17.50;80.60;;;;;;4987620;28;96139;-45
2022/05/08 11:26:18;;;;;;;;;;;17.40;80.50;;;;;;4987431;28;95638;-46
2022/05/08 11:28:50;;;;;;;;;;;17.40;80.50;;;;;;4983429;28;95748;-46
2022/05/08 11:31:27;;;;;;;;;;;17.40;80.50;;;;;;4967047;28;96036;-46
2022/05/08 11:36:49;;;;;;;;;;;17.40;80.50;;;;;;4982524;28;95475;-47
2022/05/08 11:39:21;;;;;;;;;;;17.40;80.50;;;;;;4985303;28;96546;-46
2022/05/08 11:41:51;;;;;;;;;;;17.40;80.50;;;;;;4990221;28;96539;-47
2022/05/08 11:44:27;;;;;;;;;;;17.40;80.50;;;;;;4988388;28;95806;-48
2022/05/08 11:46:58;;;;;;;;;;;17.30;80.40;;;;;;4983599;28;95296;-45
2022/05/08 11:49:29;;;;;;;;;;;17.30;80.50;;;;;;4991028;28;95730;-44
2022/05/08 11:52:01;;;;;;;;;;;17.30;80.40;;;;;;4990575;28;96386;-45
2022/05/08 11:54:35;;;;;;;;;;;17.30;80.30;;;;;;4991027;28;95541;-46
2022/05/08 11:57:13;;;;;;;;;;;17.30;80.50;;;;;;4990455;28;95560;-46
2022/05/08 11:59:44;;;;;;;;;;;17.20;80.50;;;;;;4974149;28;95858;-48
2022/05/08 12:02:16;;;;;;;;;;;17.20;80.40;;;;;;4985262;28;95901;-48
2022/05/08 12:04:57;;;;;;;;;;;17.20;80.40;;;;;;4985038;28;95887;-45
2022/05/08 12:07:38;;;;;;;;;;;17.10;80.30;;;;;;4986219;28;95560;-46
2022/05/08 12:10:10;;;;;;;;;;;17.20;80.40;;;;;;4989609;28;96049;-45
2022/05/08 12:12:42;;;;;;;;;;;17.10;80.40;;;;;;4987250;28;96087;-45
2022/05/08 12:15:20;;;;;;;;;;;17.10;80.30;;;;;;4989762;28;95696;-47
2022/05/08 12:17:53;;;;;;;;;;;17.10;80.30;;;;;;4987701;28;95785;-47
2022/05/08 12:20:28;;;;;;;;;;;17.10;80.40;;;;;;4991463;28;95793;-45
2022/05/08 12:23:00;;;;;;;;;;;17.10;80.40;;;;;;4989303;28;98073;-46
2022/05/08 12:25:31;;;;;;;;;;;17.00;80.40;;;;;;4990043;28;96101;-45
2022/05/08 12:28:02;;;;;;;;;;;17.00;80.40;;;;;;4989417;28;95707;-45
2022/05/08 12:30:34;;;;;;;;;;;17.00;80.40;;;;;;4981991;28;95392;-46
2022/05/08 12:33:05;;;;;;;;;;;17.00;80.40;;;;;;4970565;28;96923;-47
2022/05/08 12:35:37;;;;;;;;;;;17.00;80.40;;;;;;4987949;28;95885;-45
2022/05/08 12:38:10;;;;;;;;;;;17.00;80.40;;;;;;4982400;28;95527;-45
2022/05/08 12:40:42;;;;;;;;;;;16.90;80.40;;;;;;4990479;28;95517;-45
2022/05/08 12:43:12;;;;;;;;;;;16.90;80.40;;;;;;4990010;28;95676;-45
2022/05/08 12:45:42;;;;;;;;;;;16.90;80.30;;;;;;4981889;28;95869;-45
2022/05/08 12:48:19;;;;;;;;;;;16.90;80.30;;;;;;4990578;28;95847;-48
2022/05/08 12:50:51;;;;;;;;;;;16.90;80.20;;;;;;4991754;28;96111;-47
2022/05/08 12:53:21;;;;;;;;;;;16.80;80.30;;;;;;4990944;28;96556;-46
2022/05/08 12:55:50;;;;;;;;;;;16.80;80.40;;;;;;4990629;28;95364;-46
2022/05/08 13:01:10;;;;;;;;;;;16.80;80.30;;;;;;4985749;28;95436;-45
2022/05/08 13:03:41;;;;;;;;;;;16.70;80.30;;;;;;4989388;28;97041;-45
2022/05/08 13:06:13;;;;;;;;;;;16.80;80.40;;;;;;4990639;28;95579;-46
2022/05/08 13:08:44;;;;;;;;;;;16.80;80.30;;;;;;4991005;28;95746;-47
2022/05/08 13:11:15;;;;;;;;;;;16.70;80.40;;;;;;4990038;28;95621;-45
2022/05/08 13:13:44;;;;;;;;;;;16.70;80.40;;;;;;4986941;28;96366;-46
2022/05/08 13:16:15;;;;;;;;;;;16.70;80.40;;;;;;4985161;28;95582;-45
2022/05/08 13:18:44;;;;;;;;;;;16.70;80.50;;;;;;4991767;28;95316;-45
2022/05/08 13:21:15;;;;;;;;;;;16.70;80.40;;;;;;4989956;28;95600;-47
2022/05/08 13:23:45;;;;;;;;;;;16.70;80.40;;;;;;4991387;28;95866;-45
2022/05/08 13:26:16;;;;;;;;;;;16.60;80.40;;;;;;4990213;28;95992;-46
2022/05/08 13:28:47;;;;;;;;;;;16.60;80.40;;;;;;4986651;28;95799;-46
2022/05/08 13:31:18;;;;;;;;;;;16.60;80.40;;;;;;4988382;28;95942;-45
2022/05/08 13:33:49;;;;;;;;;;;16.60;80.40;;;;;;4986512;28;95914;-45
2022/05/08 13:36:20;;;;;;;;;;;16.60;80.50;;;;;;4985066;28;99124;-45
2022/05/08 13:38:51;;;;;;;;;;;16.50;80.40;;;;;;4985650;28;95855;-45
2022/05/08 13:41:21;;;;;;;;;;;16.60;80.60;;;;;;4990818;28;95936;-46
2022/05/08 13:43:51;;;;;;;;;;;16.60;80.50;;;;;;4986155;28;95843;-45
2022/05/08 13:46:22;;;;;;;;;;;16.60;80.60;;;;;;4990277;28;96256;-44
2022/05/08 13:48:52;;;;;;;;;;;16.60;80.60;;;;;;4987592;28;95795;-44
2022/05/08 13:51:23;;;;;;;;;;;16.60;80.60;;;;;;4991765;28;95277;-45
2022/05/08 13:53:56;;;;;;;;;;;16.60;80.60;;;;;;4991036;28;95861;-46
2022/05/08 13:56:27;;;;;;;;;;;16.60;80.60;;;;;;4993816;28;95856;-44
2022/05/08 13:59:00;;;;;;;;;;;16.60;80.50;;;;;;4993246;28;95471;-44
2022/05/08 14:01:31;;;;;;;;;;;16.60;80.90;;;;;;4981455;28;97069;-44
2022/05/08 14:04:01;;;;;;;;;;;16.60;81.30;;;;;;4985325;28;96070;-45
2022/05/08 14:06:38;;;;;;;;;;;16.60;81.50;;;;;;4989811;28;95891;-45
2022/05/08 14:09:09;;;;;;;;;;;16.60;81.40;;;;;;4986371;28;95777;-45
2022/05/08 14:11:39;;;;;;;;;;;16.60;81.40;;;;;;4990394;28;95733;-44
2022/05/08 14:14:08;;;;;;;;;;;16.50;81.30;;;;;;4988739;28;95912;-45
2022/05/08 14:16:39;;;;;;;;;;;16.50;81.30;;;;;;4988335;28;96158;-46
2022/05/08 14:19:10;;;;;;;;;;;16.50;81.40;;;;;;4989009;28;96781;-44
2022/05/08 14:21:40;;;;;;;;;;;16.50;81.30;;;;;;4992227;28;95946;-45
2022/05/08 14:24:11;;;;;;;;;;;16.50;81.20;;;;;;4984713;28;96451;-44
2022/05/08 14:26:43;;;;;;;;;;;16.40;81.10;;;;;;4972110;28;95490;-46
2022/05/08 14:29:14;;;;;;;;;;;16.50;81.10;;;;;;4992536;28;95394;-46
2022/05/08 14:37:24;;;;;;;;;;;16.50;81.40;;;;;;4985231;28;95768;-48
2022/05/08 14:39:53;;;;;;;;;;;16.60;81.30;;;;;;4987362;28;96491;-47
2022/05/08 14:42:23;;;;;;;;;;;16.50;81.20;;;;;;4987213;28;95241;-48
2022/05/08 14:44:54;;;;;;;;;;;16.50;81.20;;;;;;4983929;28;96247;-50
2022/05/08 14:47:24;;;;;;;;;;;16.50;81.20;;;;;;4983346;28;97304;-47
2022/05/08 14:49:54;;;;;;;;;;;16.50;81.10;;;;;;4988692;28;95840;-50
2022/05/08 14:52:24;;;;;;;;;;;16.50;81.20;;;;;;4988831;28;96067;-45
2022/05/08 14:54:58;;;;;;;;;;;16.50;81.20;;;;;;4987194;28;97721;-48
2022/05/08 14:57:29;;;;;;;;;;;16.60;81.20;;;;;;4987370;28;96357;-54
2022/05/08 14:59:59;;;;;;;;;;;16.70;81.20;;;;;;4985869;28;95765;-45
2022/05/08 15:02:30;;;;;;;;;;;16.70;81.10;;;;;;4986760;28;95753;-57
2022/05/08 15:05:01;;;;;;;;;;;16.80;81.00;;;;;;4986980;28;96618;-45
2022/05/08 15:07:36;;;;;;;;;;;16.80;80.90;;;;;;4987527;28;95886;-48
2022/05/08 15:11:20;;;;;;;11.68;8.15;;;16.90;77.50;;;;;;5014249;27;98617;-66
2022/05/08 15:13:51;;;;;;;9.68;7.95;;;16.90;80.90;;;;;;4978662;28;96335;-58